sensor_id;sensor_type;location;lat;lon;timestamp;temperature;humidity
23233;DHT22;11785;49.500;8.288;2023-10-19T00:02:05;11.30;99.90
23233;DHT22;11785;49.500;8.288;2023-10-19T00:04:32;11.30;99.90
23233;DHT22;11785;49.500;8.288;2023-10-19T00:07:00;11.30;99.90
23233;DHT22;11785;49.500;8.288;2023-10-19T00:09:26;11.30;99.90
23233;DHT22;11785;49.500;8.288;2023-10-19T00:11:57;11.30;99.90
23233;DHT22;11785;49.500;8.288;2023-10-19T00:14:23;11.40;99.90
23233;DHT22;11785;49.500;8.288;2023-10-19T00:16:51;11.40;99.90
23233;DHT22;11785;49.500;8.288;2023-10-19T00:19:20;11.40;99.90
23233;DHT22;11785;49.500;8.288;2023-10-19T00:21:46;11.30;99.90
23233;DHT22;11785;49.500;8.288;2023-10-19T00:24:21;11.30;99.90
23233;DHT22;11785;49.500;8.288;2023-10-19T00:26:49;11.30;99.90
23233;DHT22;11785;49.500;8.288;2023-10-19T00:29:19;11.30;99.90
23233;DHT22;11785;49.500;8.288;2023-10-19T00:31:58;11.30;99.90
23233;DHT22;11785;49.500;8.288;2023-10-19T00:34:25;11.30;99.90
23233;DHT22;11785;49.500;8.288;2023-10-19T00:36:51;11.30;99.90
23233;DHT22;11785;49.500;8.288;2023-10-19T00:39:17;11.30;99.90
23233;DHT22;11785;49.500;8.288;2023-10-19T00:41:49;11.30;99.90
23233;DHT22;11785;49.500;8.288;2023-10-19T00:44:16;11.30;99.90
23233;DHT22;11785;49.500;8.288;2023-10-19T00:46:43;11.30;99.90
23233;DHT22;11785;49.500;8.288;2023-10-19T00:49:10;11.30;99.90
23233;DHT22;11785;49.500;8.288;2023-10-19T00:51:42;11.20;99.90
23233;DHT22;11785;49.500;8.288;2023-10-19T00:54:17;11.20;99.90
23233;DHT22;11785;49.500;8.288;2023-10-19T00:56:52;11.20;99.90
23233;DHT22;11785;49.500;8.288;2023-10-19T00:59:19;11.20;99.90
23233;DHT22;11785;49.500;8.288;2023-10-19T01:01:45;11.20;99.90
23233;DHT22;11785;49.500;8.288;2023-10-19T01:04:14;11.30;99.90
23233;DHT22;11785;49.500;8.288;2023-10-19T01:06:41;11.30;99.90
23233;DHT22;11785;49.500;8.288;2023-10-19T01:09:12;11.30;99.90
23233;DHT22;11785;49.500;8.288;2023-10-19T01:11:41;11.30;99.90
23233;DHT22;11785;49.500;8.288;2023-10-19T01:14:21;11.40;99.90
23233;DHT22;11785;49.500;8.288;2023-10-19T01:16:53;11.40;99.90
23233;DHT22;11785;49.500;8.288;2023-10-19T01:19:22;11.40;99.90
23233;DHT22;11785;49.500;8.288;2023-10-19T01:21:48;11.40;99.90
23233;DHT22;11785;49.500;8.288;2023-10-19T01:24:21;11.40;99.90
23233;DHT22;11785;49.500;8.288;2023-10-19T01:27:06;11.40;99.90
23233;DHT22;11785;49.500;8.288;2023-10-19T01:29:34;11.50;99.90
23233;DHT22;11785;49.500;8.288;2023-10-19T01:32:00;11.50;99.90
23233;DHT22;11785;49.500;8.288;2023-10-19T01:34:32;11.50;99.90
23233;DHT22;11785;49.500;8.288;2023-10-19T01:36:59;11.50;99.90
23233;DHT22;11785;49.500;8.288;2023-10-19T01:39:29;11.50;99.90
23233;DHT22;11785;49.500;8.288;2023-10-19T01:41:55;11.60;99.90
23233;DHT22;11785;49.500;8.288;2023-10-19T01:44:22;11.60;99.90
23233;DHT22;11785;49.500;8.288;2023-10-19T01:46:50;11.60;99.90
23233;DHT22;11785;49.500;8.288;2023-10-19T01:49:15;11.60;99.90
23233;DHT22;11785;49.500;8.288;2023-10-19T01:51:52;11.50;99.90
23233;DHT22;11785;49.500;8.288;2023-10-19T01:54:19;11.60;99.90
23233;DHT22;11785;49.500;8.288;2023-10-19T01:56:52;11.60;99.90
23233;DHT22;11785;49.500;8.288;2023-10-19T01:59:24;11.60;99.90
23233;DHT22;11785;49.500;8.288;2023-10-19T02:01:56;11.50;99.90
23233;DHT22;11785;49.500;8.288;2023-10-19T02:04:23;11.60;99.90
23233;DHT22;11785;49.500;8.288;2023-10-19T02:06:49;11.60;99.90
23233;DHT22;11785;49.500;8.288;2023-10-19T02:09:18;11.60;99.90
23233;DHT22;11785;49.500;8.288;2023-10-19T02:11:50;11.60;99.90
23233;DHT22;11785;49.500;8.288;2023-10-19T02:14:18;11.60;99.90
23233;DHT22;11785;49.500;8.288;2023-10-19T02:16:50;11.60;99.90
23233;DHT22;11785;49.500;8.288;2023-10-19T02:19:17;11.60;99.90
23233;DHT22;11785;49.500;8.288;2023-10-19T02:21:43;11.60;99.90
23233;DHT22;11785;49.500;8.288;2023-10-19T02:24:12;11.60;99.90
23233;DHT22;11785;49.500;8.288;2023-10-19T02:26:42;11.50;99.90
23233;DHT22;11785;49.500;8.288;2023-10-19T02:29:08;11.50;99.90
23233;DHT22;11785;49.500;8.288;2023-10-19T02:31:36;11.50;99.90
23233;DHT22;11785;49.500;8.288;2023-10-19T02:34:06;11.50;99.90
23233;DHT22;11785;49.500;8.288;2023-10-19T02:36:33;11.50;99.90
23233;DHT22;11785;49.500;8.288;2023-10-19T02:39:04;11.50;99.90
23233;DHT22;11785;49.500;8.288;2023-10-19T02:41:34;11.50;99.90
23233;DHT22;11785;49.500;8.288;2023-10-19T02:44:04;11.50;99.90
23233;DHT22;11785;49.500;8.288;2023-10-19T02:46:30;11.50;99.90
23233;DHT22;11785;49.500;8.288;2023-10-19T02:49:03;11.50;99.90
23233;DHT22;11785;49.500;8.288;2023-10-19T02:51:32;11.50;99.90
23233;DHT22;11785;49.500;8.288;2023-10-19T02:53:58;11.50;99.90
23233;DHT22;11785;49.500;8.288;2023-10-19T02:56:27;11.50;99.90
23233;DHT22;11785;49.500;8.288;2023-10-19T02:58:55;11.40;99.90
23233;DHT22;11785;49.500;8.288;2023-10-19T03:01:27;11.50;99.90
23233;DHT22;11785;49.500;8.288;2023-10-19T03:03:57;11.50;99.90
23233;DHT22;11785;49.500;8.288;2023-10-19T03:06:26;11.50;99.90
23233;DHT22;11785;49.500;8.288;2023-10-19T03:08:57;11.60;99.90
23233;DHT22;11785;49.500;8.288;2023-10-19T03:11:47;11.60;99.90
23233;DHT22;11785;49.500;8.288;2023-10-19T03:14:17;11.60;99.90
23233;DHT22;11785;49.500;8.288;2023-10-19T03:16:43;11.60;99.90
23233;DHT22;11785;49.500;8.288;2023-10-19T03:19:09;11.60;99.90
23233;DHT22;11785;49.500;8.288;2023-10-19T03:21:35;11.60;99.90
23233;DHT22;11785;49.500;8.288;2023-10-19T03:24:14;11.60;99.90
23233;DHT22;11785;49.500;8.288;2023-10-19T03:26:59;11.60;99.90
23233;DHT22;11785;49.500;8.288;2023-10-19T03:29:25;11.60;99.90
23233;DHT22;11785;49.500;8.288;2023-10-19T03:31:58;11.60;99.90
23233;DHT22;11785;49.500;8.288;2023-10-19T03:34:26;11.60;99.90
23233;DHT22;11785;49.500;8.288;2023-10-19T03:36:52;11.50;99.90
23233;DHT22;11785;49.500;8.288;2023-10-19T03:39:17;11.50;99.90
23233;DHT22;11785;49.500;8.288;2023-10-19T03:41:44;11.50;99.90
23233;DHT22;11785;49.500;8.288;2023-10-19T03:44:13;11.50;99.90
23233;DHT22;11785;49.500;8.288;2023-10-19T03:47:02;11.50;99.90
23233;DHT22;11785;49.500;8.288;2023-10-19T03:49:30;11.50;99.90
23233;DHT22;11785;49.500;8.288;2023-10-19T03:52:01;11.40;99.90
23233;DHT22;11785;49.500;8.288;2023-10-19T03:54:47;11.40;99.90
23233;DHT22;11785;49.500;8.288;2023-10-19T03:57:14;11.40;99.90
23233;DHT22;11785;49.500;8.288;2023-10-19T03:59:45;11.50;99.90
23233;DHT22;11785;49.500;8.288;2023-10-19T04:02:11;11.50;99.90
23233;DHT22;11785;49.500;8.288;2023-10-19T04:04:43;11.50;99.90
23233;DHT22;11785;49.500;8.288;2023-10-19T04:07:12;11.50;99.90
23233;DHT22;11785;49.500;8.288;2023-10-19T04:09:51;11.60;99.90
23233;DHT22;11785;49.500;8.288;2023-10-19T04:12:30;11.60;99.90
23233;DHT22;11785;49.500;8.288;2023-10-19T04:15:01;11.60;99.90
23233;DHT22;11785;49.500;8.288;2023-10-19T04:17:46;11.70;99.90
23233;DHT22;11785;49.500;8.288;2023-10-19T04:20:13;11.70;99.90
23233;DHT22;11785;49.500;8.288;2023-10-19T04:22:45;11.70;99.90
23233;DHT22;11785;49.500;8.288;2023-10-19T04:25:15;11.80;99.90
23233;DHT22;11785;49.500;8.288;2023-10-19T04:27:55;11.80;99.90
23233;DHT22;11785;49.500;8.288;2023-10-19T04:30:22;11.90;99.90
23233;DHT22;11785;49.500;8.288;2023-10-19T04:32:49;11.90;99.90
23233;DHT22;11785;49.500;8.288;2023-10-19T04:35:15;11.90;99.90
23233;DHT22;11785;49.500;8.288;2023-10-19T04:37:51;11.90;99.90
23233;DHT22;11785;49.500;8.288;2023-10-19T04:40:18;11.90;99.90
23233;DHT22;11785;49.500;8.288;2023-10-19T04:42:45;11.90;99.90
23233;DHT22;11785;49.500;8.288;2023-10-19T04:45:11;11.90;99.90
23233;DHT22;11785;49.500;8.288;2023-10-19T04:47:37;11.90;99.90
23233;DHT22;11785;49.500;8.288;2023-10-19T04:50:03;11.90;99.90
23233;DHT22;11785;49.500;8.288;2023-10-19T04:52:29;11.90;99.90
23233;DHT22;11785;49.500;8.288;2023-10-19T04:54:55;11.90;99.90
23233;DHT22;11785;49.500;8.288;2023-10-19T04:57:21;11.90;99.90
23233;DHT22;11785;49.500;8.288;2023-10-19T04:59:47;11.90;99.90
23233;DHT22;11785;49.500;8.288;2023-10-19T05:02:12;11.90;99.90
23233;DHT22;11785;49.500;8.288;2023-10-19T05:04:38;11.90;99.90
23233;DHT22;11785;49.500;8.288;2023-10-19T05:07:06;11.90;99.90
23233;DHT22;11785;49.500;8.288;2023-10-19T05:09:32;11.90;99.90
23233;DHT22;11785;49.500;8.288;2023-10-19T05:11:57;11.90;99.90
23233;DHT22;11785;49.500;8.288;2023-10-19T05:14:23;11.90;99.90
23233;DHT22;11785;49.500;8.288;2023-10-19T05:16:49;11.90;99.90
23233;DHT22;11785;49.500;8.288;2023-10-19T05:19:15;11.90;99.90
23233;DHT22;11785;49.500;8.288;2023-10-19T05:21:41;11.90;99.90
23233;DHT22;11785;49.500;8.288;2023-10-19T05:24:07;11.90;99.90
23233;DHT22;11785;49.500;8.288;2023-10-19T05:26:35;11.90;99.90
23233;DHT22;11785;49.500;8.288;2023-10-19T05:29:01;11.90;99.90
23233;DHT22;11785;49.500;8.288;2023-10-19T05:31:26;11.90;99.90
23233;DHT22;11785;49.500;8.288;2023-10-19T05:33:53;11.90;99.90
23233;DHT22;11785;49.500;8.288;2023-10-19T05:36:19;11.90;99.90
23233;DHT22;11785;49.500;8.288;2023-10-19T05:38:44;11.90;99.90
23233;DHT22;11785;49.500;8.288;2023-10-19T05:41:10;11.90;99.90
23233;DHT22;11785;49.500;8.288;2023-10-19T05:43:37;11.90;99.90
23233;DHT22;11785;49.500;8.288;2023-10-19T05:46:03;11.90;99.90
23233;DHT22;11785;49.500;8.288;2023-10-19T05:48:30;11.90;99.90
23233;DHT22;11785;49.500;8.288;2023-10-19T05:50:55;11.80;99.90
23233;DHT22;11785;49.500;8.288;2023-10-19T05:53:21;11.80;99.90
23233;DHT22;11785;49.500;8.288;2023-10-19T05:55:48;11.80;99.90
23233;DHT22;11785;49.500;8.288;2023-10-19T05:58:14;11.70;99.90
23233;DHT22;11785;49.500;8.288;2023-10-19T06:00:40;11.80;99.90
23233;DHT22;11785;49.500;8.288;2023-10-19T06:03:06;11.70;99.90
23233;DHT22;11785;49.500;8.288;2023-10-19T06:05:31;11.70;99.90
23233;DHT22;11785;49.500;8.288;2023-10-19T06:07:57;11.70;99.90
23233;DHT22;11785;49.500;8.288;2023-10-19T06:10:27;11.70;99.90
23233;DHT22;11785;49.500;8.288;2023-10-19T06:12:53;11.70;99.90
23233;DHT22;11785;49.500;8.288;2023-10-19T06:15:21;11.70;99.90
23233;DHT22;11785;49.500;8.288;2023-10-19T06:17:49;11.80;99.90
23233;DHT22;11785;49.500;8.288;2023-10-19T06:20:15;11.80;99.90
23233;DHT22;11785;49.500;8.288;2023-10-19T06:22:54;11.80;99.90
23233;DHT22;11785;49.500;8.288;2023-10-19T06:25:24;11.80;99.90
23233;DHT22;11785;49.500;8.288;2023-10-19T06:27:51;11.90;99.90
23233;DHT22;11785;49.500;8.288;2023-10-19T06:30:18;11.90;99.90
23233;DHT22;11785;49.500;8.288;2023-10-19T06:32:49;11.90;99.90
23233;DHT22;11785;49.500;8.288;2023-10-19T06:35:19;12.00;99.90
23233;DHT22;11785;49.500;8.288;2023-10-19T06:37:46;12.00;99.90
23233;DHT22;11785;49.500;8.288;2023-10-19T06:40:13;12.10;99.90
23233;DHT22;11785;49.500;8.288;2023-10-19T06:42:45;12.10;99.90
23233;DHT22;11785;49.500;8.288;2023-10-19T06:45:12;12.20;99.90
23233;DHT22;11785;49.500;8.288;2023-10-19T06:47:45;12.20;99.90
23233;DHT22;11785;49.500;8.288;2023-10-19T06:50:13;12.20;99.90
23233;DHT22;11785;49.500;8.288;2023-10-19T06:52:41;12.30;99.90
23233;DHT22;11785;49.500;8.288;2023-10-19T06:55:08;12.30;99.90
23233;DHT22;11785;49.500;8.288;2023-10-19T06:57:43;12.30;99.90
23233;DHT22;11785;49.500;8.288;2023-10-19T07:00:10;12.30;99.90
23233;DHT22;11785;49.500;8.288;2023-10-19T07:02:40;12.40;99.90
23233;DHT22;11785;49.500;8.288;2023-10-19T07:05:07;12.40;99.90
23233;DHT22;11785;49.500;8.288;2023-10-19T07:07:44;12.40;99.90
23233;DHT22;11785;49.500;8.288;2023-10-19T07:10:11;12.40;99.90
23233;DHT22;11785;49.500;8.288;2023-10-19T07:12:41;12.40;99.90
23233;DHT22;11785;49.500;8.288;2023-10-19T07:15:07;12.50;99.90
23233;DHT22;11785;49.500;8.288;2023-10-19T07:17:36;12.50;99.90
23233;DHT22;11785;49.500;8.288;2023-10-19T07:20:04;12.60;99.90
23233;DHT22;11785;49.500;8.288;2023-10-19T07:22:32;12.60;99.90
23233;DHT22;11785;49.500;8.288;2023-10-19T07:24:57;12.60;99.90
23233;DHT22;11785;49.500;8.288;2023-10-19T07:27:23;12.70;99.90
23233;DHT22;11785;49.500;8.288;2023-10-19T07:29:52;12.70;99.90
23233;DHT22;11785;49.500;8.288;2023-10-19T07:32:18;12.80;99.90
23233;DHT22;11785;49.500;8.288;2023-10-19T07:34:43;12.80;99.90
23233;DHT22;11785;49.500;8.288;2023-10-19T07:37:12;12.80;99.90
23233;DHT22;11785;49.500;8.288;2023-10-19T07:39:45;12.90;99.90
23233;DHT22;11785;49.500;8.288;2023-10-19T07:42:11;12.90;99.90
23233;DHT22;11785;49.500;8.288;2023-10-19T07:44:37;12.90;99.90
23233;DHT22;11785;49.500;8.288;2023-10-19T07:47:02;12.90;99.90
23233;DHT22;11785;49.500;8.288;2023-10-19T07:49:28;12.90;99.90
23233;DHT22;11785;49.500;8.288;2023-10-19T07:51:54;12.90;99.90
23233;DHT22;11785;49.500;8.288;2023-10-19T07:54:20;12.80;99.90
23233;DHT22;11785;49.500;8.288;2023-10-19T07:56:46;12.80;99.90
23233;DHT22;11785;49.500;8.288;2023-10-19T07:59:14;12.90;99.90
23233;DHT22;11785;49.500;8.288;2023-10-19T08:01:41;12.90;99.90
23233;DHT22;11785;49.500;8.288;2023-10-19T08:04:07;12.90;99.90
23233;DHT22;11785;49.500;8.288;2023-10-19T08:06:33;12.90;99.90
23233;DHT22;11785;49.500;8.288;2023-10-19T08:08:58;13.00;99.90
23233;DHT22;11785;49.500;8.288;2023-10-19T08:11:25;13.00;99.90
23233;DHT22;11785;49.500;8.288;2023-10-19T08:13:50;13.10;99.90
23233;DHT22;11785;49.500;8.288;2023-10-19T08:16:16;13.30;99.90
23233;DHT22;11785;49.500;8.288;2023-10-19T08:18:45;13.40;99.90
23233;DHT22;11785;49.500;8.288;2023-10-19T08:21:11;13.60;99.90
23233;DHT22;11785;49.500;8.288;2023-10-19T08:23:37;13.60;99.90
23233;DHT22;11785;49.500;8.288;2023-10-19T08:26:03;13.60;99.90
23233;DHT22;11785;49.500;8.288;2023-10-19T08:28:31;13.60;99.90
23233;DHT22;11785;49.500;8.288;2023-10-19T08:30:58;13.50;99.90
23233;DHT22;11785;49.500;8.288;2023-10-19T08:33:26;13.60;99.90
23233;DHT22;11785;49.500;8.288;2023-10-19T08:35:53;13.70;99.90
23233;DHT22;11785;49.500;8.288;2023-10-19T08:38:19;13.80;99.90
23233;DHT22;11785;49.500;8.288;2023-10-19T08:40:45;13.80;99.90
23233;DHT22;11785;49.500;8.288;2023-10-19T08:43:11;13.90;99.90
23233;DHT22;11785;49.500;8.288;2023-10-19T08:45:39;14.00;99.90
23233;DHT22;11785;49.500;8.288;2023-10-19T08:48:05;14.20;99.90
23233;DHT22;11785;49.500;8.288;2023-10-19T08:50:32;14.30;99.90
23233;DHT22;11785;49.500;8.288;2023-10-19T08:53:00;14.30;99.90
23233;DHT22;11785;49.500;8.288;2023-10-19T08:55:28;14.40;99.90
23233;DHT22;11785;49.500;8.288;2023-10-19T08:57:55;14.40;99.90
23233;DHT22;11785;49.500;8.288;2023-10-19T09:00:23;14.50;99.90
23233;DHT22;11785;49.500;8.288;2023-10-19T09:02:51;14.60;99.90
23233;DHT22;11785;49.500;8.288;2023-10-19T09:05:18;14.70;99.90
23233;DHT22;11785;49.500;8.288;2023-10-19T09:07:52;14.80;99.90
23233;DHT22;11785;49.500;8.288;2023-10-19T09:10:21;15.10;99.90
23233;DHT22;11785;49.500;8.288;2023-10-19T09:13:08;15.40;99.90
23233;DHT22;11785;49.500;8.288;2023-10-19T09:15:35;15.50;99.90
23233;DHT22;11785;49.500;8.288;2023-10-19T09:18:20;15.40;99.90
23233;DHT22;11785;49.500;8.288;2023-10-19T09:20:54;15.30;99.90
23233;DHT22;11785;49.500;8.288;2023-10-19T09:23:46;15.20;99.90
23233;DHT22;11785;49.500;8.288;2023-10-19T09:26:12;15.10;99.90
23233;DHT22;11785;49.500;8.288;2023-10-19T09:28:39;15.20;99.90
23233;DHT22;11785;49.500;8.288;2023-10-19T09:31:06;15.30;99.90
23233;DHT22;11785;49.500;8.288;2023-10-19T09:33:35;15.60;99.90
23233;DHT22;11785;49.500;8.288;2023-10-19T09:36:02;16.00;99.90
23233;DHT22;11785;49.500;8.288;2023-10-19T09:38:29;16.30;98.60
23233;DHT22;11785;49.500;8.288;2023-10-19T09:40:55;16.70;96.10
23233;DHT22;11785;49.500;8.288;2023-10-19T09:43:35;16.60;94.40
23233;DHT22;11785;49.500;8.288;2023-10-19T09:46:06;16.50;95.40
23233;DHT22;11785;49.500;8.288;2023-10-19T09:48:46;16.50;95.80
23233;DHT22;11785;49.500;8.288;2023-10-19T09:51:13;16.50;95.80
23233;DHT22;11785;49.500;8.288;2023-10-19T09:53:40;16.40;95.80
23233;DHT22;11785;49.500;8.288;2023-10-19T09:56:08;16.30;96.60
23233;DHT22;11785;49.500;8.288;2023-10-19T09:58:44;16.30;97.30
23233;DHT22;11785;49.500;8.288;2023-10-19T10:01:10;16.40;97.30
23233;DHT22;11785;49.500;8.288;2023-10-19T10:03:47;16.40;96.50
23233;DHT22;11785;49.500;8.288;2023-10-19T10:06:15;16.10;98.20
23233;DHT22;11785;49.500;8.288;2023-10-19T10:08:43;15.90;99.60
23233;DHT22;11785;49.500;8.288;2023-10-19T10:11:22;15.90;99.90
23233;DHT22;11785;49.500;8.288;2023-10-19T10:13:49;16.00;99.90
23233;DHT22;11785;49.500;8.288;2023-10-19T10:16:19;16.00;99.90
23233;DHT22;11785;49.500;8.288;2023-10-19T10:18:47;15.90;99.90
23233;DHT22;11785;49.500;8.288;2023-10-19T10:21:14;15.90;99.90
23233;DHT22;11785;49.500;8.288;2023-10-19T10:23:48;15.90;99.90
23233;DHT22;11785;49.500;8.288;2023-10-19T10:26:16;15.90;99.90
23233;DHT22;11785;49.500;8.288;2023-10-19T10:28:46;16.00;99.90
23233;DHT22;11785;49.500;8.288;2023-10-19T10:31:19;16.00;99.90
23233;DHT22;11785;49.500;8.288;2023-10-19T10:36:17;15.90;99.90
23233;DHT22;11785;49.500;8.288;2023-10-19T10:38:45;15.80;99.90
23233;DHT22;11785;49.500;8.288;2023-10-19T10:41:10;15.70;99.90
23233;DHT22;11785;49.500;8.288;2023-10-19T10:43:53;15.70;99.90
23233;DHT22;11785;49.500;8.288;2023-10-19T10:46:20;15.80;99.90
23233;DHT22;11785;49.500;8.288;2023-10-19T10:48:47;15.80;99.90
23233;DHT22;11785;49.500;8.288;2023-10-19T10:51:24;15.80;99.90
23233;DHT22;11785;49.500;8.288;2023-10-19T10:53:54;15.80;99.90
23233;DHT22;11785;49.500;8.288;2023-10-19T10:56:21;15.80;99.90
23233;DHT22;11785;49.500;8.288;2023-10-19T10:58:47;15.80;99.90
23233;DHT22;11785;49.500;8.288;2023-10-19T11:01:13;15.80;99.90
23233;DHT22;11785;49.500;8.288;2023-10-19T11:03:40;15.70;99.90
23233;DHT22;11785;49.500;8.288;2023-10-19T11:06:08;15.60;99.90
23233;DHT22;11785;49.500;8.288;2023-10-19T11:08:35;15.60;99.90
23233;DHT22;11785;49.500;8.288;2023-10-19T11:11:08;15.60;99.90
23233;DHT22;11785;49.500;8.288;2023-10-19T11:13:38;15.60;99.90
23233;DHT22;11785;49.500;8.288;2023-10-19T11:16:06;15.50;99.90
23233;DHT22;11785;49.500;8.288;2023-10-19T11:18:37;15.50;99.90
23233;DHT22;11785;49.500;8.288;2023-10-19T11:21:13;15.50;99.90
23233;DHT22;11785;49.500;8.288;2023-10-19T11:23:49;15.60;99.90
23233;DHT22;11785;49.500;8.288;2023-10-19T11:26:23;15.60;99.90
23233;DHT22;11785;49.500;8.288;2023-10-19T11:28:59;15.60;99.90
23233;DHT22;11785;49.500;8.288;2023-10-19T11:31:26;15.60;99.90
23233;DHT22;11785;49.500;8.288;2023-10-19T11:33:54;15.60;99.90
23233;DHT22;11785;49.500;8.288;2023-10-19T11:36:23;15.60;99.90
23233;DHT22;11785;49.500;8.288;2023-10-19T11:38:51;15.60;99.90
23233;DHT22;11785;49.500;8.288;2023-10-19T11:41:17;15.60;99.90
23233;DHT22;11785;49.500;8.288;2023-10-19T11:43:45;15.60;99.90
23233;DHT22;11785;49.500;8.288;2023-10-19T11:46:11;15.60;99.90
23233;DHT22;11785;49.500;8.288;2023-10-19T11:48:56;15.60;99.90
23233;DHT22;11785;49.500;8.288;2023-10-19T11:51:22;15.60;99.90
23233;DHT22;11785;49.500;8.288;2023-10-19T11:53:47;15.60;99.90
23233;DHT22;11785;49.500;8.288;2023-10-19T11:56:13;15.50;99.90
23233;DHT22;11785;49.500;8.288;2023-10-19T11:58:41;15.50;99.90
23233;DHT22;11785;49.500;8.288;2023-10-19T12:01:08;15.40;99.90
23233;DHT22;11785;49.500;8.288;2023-10-19T12:03:34;15.40;99.90
23233;DHT22;11785;49.500;8.288;2023-10-19T12:06:05;15.30;99.90
23233;DHT22;11785;49.500;8.288;2023-10-19T12:08:32;15.30;99.90
23233;DHT22;11785;49.500;8.288;2023-10-19T12:10:59;15.30;99.90
23233;DHT22;11785;49.500;8.288;2023-10-19T12:13:27;15.30;99.90
23233;DHT22;11785;49.500;8.288;2023-10-19T12:15:53;15.20;99.90
23233;DHT22;11785;49.500;8.288;2023-10-19T12:18:20;15.20;99.90
23233;DHT22;11785;49.500;8.288;2023-10-19T12:20:47;15.10;99.90
23233;DHT22;11785;49.500;8.288;2023-10-19T12:23:14;15.00;99.90
23233;DHT22;11785;49.500;8.288;2023-10-19T12:25:40;14.90;99.90
23233;DHT22;11785;49.500;8.288;2023-10-19T12:28:08;14.80;99.90
23233;DHT22;11785;49.500;8.288;2023-10-19T12:30:33;14.80;99.90
23233;DHT22;11785;49.500;8.288;2023-10-19T12:33:05;14.80;99.90
23233;DHT22;11785;49.500;8.288;2023-10-19T12:35:40;14.80;99.90
23233;DHT22;11785;49.500;8.288;2023-10-19T12:38:17;14.80;99.90
23233;DHT22;11785;49.500;8.288;2023-10-19T12:40:47;14.80;99.90
23233;DHT22;11785;49.500;8.288;2023-10-19T12:43:14;14.90;99.90
23233;DHT22;11785;49.500;8.288;2023-10-19T12:45:41;14.90;99.90
23233;DHT22;11785;49.500;8.288;2023-10-19T12:48:07;15.00;99.90
23233;DHT22;11785;49.500;8.288;2023-10-19T12:50:37;15.20;99.90
23233;DHT22;11785;49.500;8.288;2023-10-19T12:53:03;15.40;99.90
23233;DHT22;11785;49.500;8.288;2023-10-19T12:55:29;15.50;99.90
23233;DHT22;11785;49.500;8.288;2023-10-19T12:57:56;15.50;99.90
23233;DHT22;11785;49.500;8.288;2023-10-19T13:00:23;15.50;99.90
23233;DHT22;11785;49.500;8.288;2023-10-19T13:02:57;15.40;99.90
23233;DHT22;11785;49.500;8.288;2023-10-19T13:05:27;15.30;99.90
23233;DHT22;11785;49.500;8.288;2023-10-19T13:07:53;15.30;99.90
23233;DHT22;11785;49.500;8.288;2023-10-19T13:10:19;15.30;99.90
23233;DHT22;11785;49.500;8.288;2023-10-19T13:12:44;15.30;99.90
23233;DHT22;11785;49.500;8.288;2023-10-19T13:15:10;15.40;99.90
23233;DHT22;11785;49.500;8.288;2023-10-19T13:17:41;15.60;99.90
23233;DHT22;11785;49.500;8.288;2023-10-19T13:20:08;15.70;99.90
23233;DHT22;11785;49.500;8.288;2023-10-19T13:22:44;15.70;99.90
23233;DHT22;11785;49.500;8.288;2023-10-19T13:25:11;15.80;99.90
23233;DHT22;11785;49.500;8.288;2023-10-19T13:27:39;15.80;99.90
23233;DHT22;11785;49.500;8.288;2023-10-19T13:30:07;15.80;99.90
23233;DHT22;11785;49.500;8.288;2023-10-19T13:32:36;15.70;99.90
23233;DHT22;11785;49.500;8.288;2023-10-19T13:35:01;15.70;99.90
23233;DHT22;11785;49.500;8.288;2023-10-19T13:37:27;15.70;99.90
23233;DHT22;11785;49.500;8.288;2023-10-19T13:39:53;15.60;99.90
23233;DHT22;11785;49.500;8.288;2023-10-19T13:42:20;15.60;99.90
23233;DHT22;11785;49.500;8.288;2023-10-19T13:44:47;15.60;99.90
23233;DHT22;11785;49.500;8.288;2023-10-19T13:47:12;15.60;99.90
23233;DHT22;11785;49.500;8.288;2023-10-19T13:49:38;15.50;99.90
23233;DHT22;11785;49.500;8.288;2023-10-19T13:52:04;15.50;99.90
23233;DHT22;11785;49.500;8.288;2023-10-19T13:54:34;15.60;99.90
23233;DHT22;11785;49.500;8.288;2023-10-19T13:57:00;15.60;99.90
23233;DHT22;11785;49.500;8.288;2023-10-19T13:59:28;15.60;99.90
23233;DHT22;11785;49.500;8.288;2023-10-19T14:01:54;15.60;99.90
23233;DHT22;11785;49.500;8.288;2023-10-19T14:04:19;15.50;99.90
23233;DHT22;11785;49.500;8.288;2023-10-19T14:06:45;15.50;99.90
23233;DHT22;11785;49.500;8.288;2023-10-19T14:09:14;15.60;99.90
23233;DHT22;11785;49.500;8.288;2023-10-19T14:11:40;15.60;99.90
23233;DHT22;11785;49.500;8.288;2023-10-19T14:14:07;15.60;99.90
23233;DHT22;11785;49.500;8.288;2023-10-19T14:16:32;15.70;99.90
23233;DHT22;11785;49.500;8.288;2023-10-19T14:18:58;15.70;99.90
23233;DHT22;11785;49.500;8.288;2023-10-19T14:21:24;15.80;99.90
23233;DHT22;11785;49.500;8.288;2023-10-19T14:23:52;15.80;99.90
23233;DHT22;11785;49.500;8.288;2023-10-19T14:26:19;15.80;99.90
23233;DHT22;11785;49.500;8.288;2023-10-19T14:28:45;15.90;99.90
23233;DHT22;11785;49.500;8.288;2023-10-19T14:31:11;15.90;99.90
23233;DHT22;11785;49.500;8.288;2023-10-19T14:33:37;15.90;99.90
23233;DHT22;11785;49.500;8.288;2023-10-19T14:36:06;16.00;99.90
23233;DHT22;11785;49.500;8.288;2023-10-19T14:38:33;16.00;99.90
23233;DHT22;11785;49.500;8.288;2023-10-19T14:40:59;15.90;99.90
23233;DHT22;11785;49.500;8.288;2023-10-19T14:43:24;16.10;99.90
23233;DHT22;11785;49.500;8.288;2023-10-19T14:45:55;16.40;99.90
23233;DHT22;11785;49.500;8.288;2023-10-19T14:48:22;16.60;99.90
23233;DHT22;11785;49.500;8.288;2023-10-19T14:50:48;16.80;99.90
23233;DHT22;11785;49.500;8.288;2023-10-19T14:53:16;16.90;99.90
23233;DHT22;11785;49.500;8.288;2023-10-19T14:55:43;17.00;99.90
23233;DHT22;11785;49.500;8.288;2023-10-19T14:58:11;17.00;99.90
23233;DHT22;11785;49.500;8.288;2023-10-19T15:00:37;17.00;99.90
23233;DHT22;11785;49.500;8.288;2023-10-19T15:03:07;17.10;99.90
23233;DHT22;11785;49.500;8.288;2023-10-19T15:05:34;17.00;99.90
23233;DHT22;11785;49.500;8.288;2023-10-19T15:08:03;17.00;99.90
23233;DHT22;11785;49.500;8.288;2023-10-19T15:10:32;16.90;99.90
23233;DHT22;11785;49.500;8.288;2023-10-19T15:12:58;16.80;99.90
23233;DHT22;11785;49.500;8.288;2023-10-19T15:15:25;16.90;99.90
23233;DHT22;11785;49.500;8.288;2023-10-19T15:17:50;17.10;99.90
23233;DHT22;11785;49.500;8.288;2023-10-19T15:20:19;17.30;99.90
23233;DHT22;11785;49.500;8.288;2023-10-19T15:22:46;17.20;99.90
23233;DHT22;11785;49.500;8.288;2023-10-19T15:25:12;17.20;99.90
23233;DHT22;11785;49.500;8.288;2023-10-19T15:27:40;17.10;99.90
23233;DHT22;11785;49.500;8.288;2023-10-19T15:30:07;17.00;99.90
23233;DHT22;11785;49.500;8.288;2023-10-19T15:32:37;16.90;99.90
23233;DHT22;11785;49.500;8.288;2023-10-19T15:35:03;16.70;99.90
23233;DHT22;11785;49.500;8.288;2023-10-19T15:37:29;16.50;99.90
23233;DHT22;11785;49.500;8.288;2023-10-19T15:39:55;16.40;99.90
23233;DHT22;11785;49.500;8.288;2023-10-19T15:42:20;16.30;99.90